Time;durP1;ratioP1;P1;durP2;ratioP2;P2;SDS_P1;SDS_P2;PMS_P1;PMS_P2;Temp;Humidity;BMP_temperature;BMP_pressure;BME280_temperature;BME280_humidity;BME280_pressure;Samples;Min_cycle;Max_cycle;Signal;HPM_P1;HPM_P2
2023/04/04 00:00:11;;;;;;;1.40;1.30;;;18.90;43.70;;;;;;5013334;28;20246;-60
2023/04/04 00:02:37;;;;;;;2.03;1.07;;;18.90;43.70;;;;;;5011505;28;20311;-60
2023/04/04 00:05:04;;;;;;;1.30;1.13;;;18.90;43.70;;;;;;5007468;28;20419;-61
2023/04/04 00:07:29;;;;;;;1.20;1.10;;;18.90;43.70;;;;;;5009111;28;20323;-61
2023/04/04 00:09:55;;;;;;;1.20;1.10;;;18.90;43.70;;;;;;5011310;28;20434;-61
2023/04/04 00:12:21;;;;;;;1.00;0.90;;;18.90;43.70;;;;;;5012426;28;20756;-61
2023/04/04 00:14:47;;;;;;;1.27;0.90;;;18.90;43.70;;;;;;5011330;28;20700;-61
2023/04/04 00:17:12;;;;;;;1.10;1.00;;;18.90;43.70;;;;;;5014415;28;20465;-60
2023/04/04 00:19:38;;;;;;;1.23;1.10;;;18.90;43.70;;;;;;5017234;28;20230;-61
2023/04/04 00:22:03;;;;;;;1.20;1.10;;;18.90;43.70;;;;;;5010004;28;20223;-63
2023/04/04 00:24:29;;;;;;;1.37;0.93;;;18.90;43.70;;;;;;5015165;28;20246;-61
2023/04/04 00:26:55;;;;;;;1.20;1.10;;;18.90;43.70;;;;;;5011685;28;20224;-60
2023/04/04 00:29:20;;;;;;;1.20;1.10;;;18.90;43.70;;;;;;5016872;28;20578;-60
2023/04/04 00:31:46;;;;;;;1.10;1.00;;;18.90;43.70;;;;;;5013494;28;20222;-60
2023/04/04 00:34:11;;;;;;;1.10;1.00;;;18.90;44.50;;;;;;5016530;28;20233;-62
2023/04/04 00:36:37;;;;;;;1.37;1.20;;;18.90;43.70;;;;;;5015576;28;20223;-63
2023/04/04 00:39:02;;;;;;;1.40;1.07;;;18.90;43.70;;;;;;5016276;28;20239;-65
2023/04/04 00:41:28;;;;;;;1.70;1.10;;;18.90;43.70;;;;;;5014267;28;20257;-63
2023/04/04 00:43:55;;;;;;;1.07;0.97;;;18.90;43.70;;;;;;5016807;28;20594;-60
2023/04/04 00:46:22;;;;;;;1.10;1.00;;;18.90;43.70;;;;;;5014350;28;20444;-60
2023/04/04 00:48:48;;;;;;;1.17;1.07;;;18.90;43.70;;;;;;5012083;28;20463;-61
2023/04/04 00:51:14;;;;;;;1.60;1.07;;;18.90;43.70;;;;;;5016608;28;21308;-65
2023/04/04 00:53:45;;;;;;;1.30;1.20;;;18.90;43.70;;;;;;5012203;28;20439;-60
2023/04/04 00:56:10;;;;;;;1.73;1.43;;;18.90;43.70;;;;;;5016111;28;20435;-60
2023/04/04 00:58:36;;;;;;;1.30;1.20;;;18.90;43.70;;;;;;5010957;28;20840;-60
2023/04/04 01:01:02;;;;;;;1.30;1.20;;;18.90;43.70;;;;;;5010113;28;20699;-61
2023/04/04 01:03:28;;;;;;;1.30;1.20;;;18.90;43.70;;;;;;5013984;28;20224;-62
2023/04/04 01:05:54;;;;;;;1.10;1.00;;;18.90;43.70;;;;;;5017593;28;20223;-61
2023/04/04 01:08:24;;;;;;;1.30;1.00;;;18.90;43.70;;;;;;5012921;28;20962;-61
2023/04/04 01:10:50;;;;;;;1.20;1.10;;;18.90;43.70;;;;;;5014516;28;20439;-60
2023/04/04 01:13:15;;;;;;;1.20;1.10;;;18.90;43.70;;;;;;5019305;28;21013;-61
2023/04/04 01:15:41;;;;;;;1.30;1.00;;;18.90;43.70;;;;;;5018278;28;20284;-63
2023/04/04 01:18:10;;;;;;;1.43;1.00;;;18.90;43.70;;;;;;5016045;28;20237;-66
2023/04/04 01:20:43;;;;;;;1.20;1.10;;;18.90;43.70;;;;;;5011376;28;20426;-61
2023/04/04 01:23:09;;;;;;;1.00;0.90;;;18.90;43.70;;;;;;5015851;28;20460;-63
2023/04/04 01:25:35;;;;;;;1.03;0.93;;;18.90;43.80;;;;;;5016077;28;20469;-62
2023/04/04 01:28:01;;;;;;;1.00;0.90;;;18.90;43.70;;;;;;5015054;28;20423;-60
2023/04/04 01:30:35;;;;;;;1.37;1.27;;;18.90;43.70;;;;;;5013934;28;20254;-60
2023/04/04 01:33:24;;;;;;;1.53;1.20;;;18.90;43.70;;;;;;5015521;28;20248;-60
2023/04/04 01:36:04;;;;;;;2.80;1.20;;;18.90;43.70;;;;;;5010172;28;20436;-61
2023/04/04 01:38:48;;;;;;;1.00;0.90;;;18.90;43.70;;;;;;5011908;28;23079;-61
2023/04/04 01:41:15;;;;;;;0.97;0.90;;;18.90;43.70;;;;;;5014137;28;20460;-62
2023/04/04 01:43:45;;;;;;;1.20;1.00;;;18.90;43.70;;;;;;5013733;28;20830;-60
2023/04/04 01:46:11;;;;;;;1.30;1.20;;;18.90;43.80;;;;;;5011013;28;20460;-62
2023/04/04 01:48:37;;;;;;;1.07;0.97;;;18.90;43.70;;;;;;5016829;28;20427;-60
2023/04/04 01:51:02;;;;;;;1.23;1.13;;;18.90;43.70;;;;;;5017018;28;20439;-61
2023/04/04 01:53:28;;;;;;;1.20;1.10;;;18.90;43.70;;;;;;5010584;28;20269;-60
2023/04/04 01:55:53;;;;;;;1.20;1.10;;;18.90;43.70;;;;;;5017959;28;20325;-63
2023/04/04 01:58:19;;;;;;;0.90;0.80;;;18.90;43.70;;;;;;5011194;28;20238;-62
2023/04/04 02:00:45;;;;;;;1.07;0.97;;;18.90;43.70;;;;;;5012503;28;20805;-62
2023/04/04 02:03:10;;;;;;;1.20;1.10;;;18.90;43.70;;;;;;5012260;28;20473;-65
2023/04/04 02:05:36;;;;;;;1.23;1.10;;;18.90;44.50;;;;;;5016240;28;20219;-60
2023/04/04 02:08:01;;;;;;;1.73;1.17;;;18.90;43.70;;;;;;5013944;28;20226;-63
2023/04/04 02:10:28;;;;;;;1.10;1.00;;;18.90;43.70;;;;;;5012489;28;20219;-63
2023/04/04 02:12:54;;;;;;;1.30;1.13;;;18.90;43.70;;;;;;5015544;28;20219;-65
2023/04/04 02:15:20;;;;;;;1.60;0.97;;;18.90;43.70;;;;;;5015596;28;20489;-62
2023/04/04 02:17:48;;;;;;;1.20;1.10;;;18.90;43.70;;;;;;5017566;28;20647;-61
2023/04/04 02:20:14;;;;;;;1.10;1.00;;;18.90;43.70;;;;;;5012400;28;20320;-62
2023/04/04 02:22:40;;;;;;;1.20;1.10;;;18.90;43.70;;;;;;5015279;28;20468;-63
2023/04/04 02:25:05;;;;;;;1.17;1.00;;;18.90;43.70;;;;;;5015590;28;20440;-60
2023/04/04 02:27:31;;;;;;;1.10;1.00;;;18.80;43.60;;;;;;5033183;28;20235;-61
2023/04/04 02:29:56;;;;;;;1.40;1.30;;;18.90;43.70;;;;;;5012646;28;20214;-61
2023/04/04 02:32:22;;;;;;;1.13;0.90;;;18.90;43.70;;;;;;5016105;28;20225;-60
2023/04/04 02:34:48;;;;;;;1.10;1.00;;;18.90;43.70;;;;;;5021384;28;20218;-60
2023/04/04 02:37:13;;;;;;;1.10;1.00;;;18.90;43.70;;;;;;5009710;28;20215;-62
2023/04/04 02:39:39;;;;;;;1.17;1.07;;;18.90;43.70;;;;;;5016584;28;20241;-61
2023/04/04 02:42:04;;;;;;;1.37;1.27;;;18.80;43.60;;;;;;5015330;28;20231;-61
2023/04/04 02:44:30;;;;;;;1.10;1.00;;;18.90;43.70;;;;;;5016935;28;20250;-63
2023/04/04 02:46:56;;;;;;;1.20;1.07;;;18.90;43.70;;;;;;5013324;28;20210;-60
2023/04/04 02:49:21;;;;;;;0.87;0.83;;;18.90;43.70;;;;;;5015623;28;20683;-63
2023/04/04 02:51:47;;;;;;;0.97;0.93;;;18.90;43.70;;;;;;5014858;28;20247;-61
2023/04/04 02:54:12;;;;;;;1.23;0.97;;;18.90;43.70;;;;;;5017393;28;20313;-61
2023/04/04 02:56:38;;;;;;;1.17;1.07;;;18.90;43.70;;;;;;5013967;28;20234;-61
2023/04/04 02:59:03;;;;;;;1.10;1.00;;;18.90;43.70;;;;;;5013241;28;20281;-61
2023/04/04 03:01:29;;;;;;;0.90;0.90;;;18.90;43.70;;;;;;5013183;28;20272;-64
2023/04/04 03:03:55;;;;;;;1.20;1.10;;;18.90;43.70;;;;;;5009601;28;20583;-64
2023/04/04 03:06:21;;;;;;;1.13;0.93;;;18.80;43.60;;;;;;5016153;28;20306;-62
2023/04/04 03:08:46;;;;;;;1.10;1.00;;;18.90;43.70;;;;;;5014363;28;20230;-63
2023/04/04 03:11:17;;;;;;;1.30;1.20;;;18.80;43.60;;;;;;5018845;28;20229;-66
2023/04/04 03:13:42;;;;;;;1.13;1.00;;;18.90;43.70;;;;;;5015727;28;20740;-62
2023/04/04 03:16:09;;;;;;;0.93;0.90;;;18.80;43.60;;;;;;5012904;28;20415;-61
2023/04/04 03:18:35;;;;;;;1.30;1.20;;;18.90;43.70;;;;;;5012977;28;20241;-60
2023/04/04 03:21:00;;;;;;;1.17;1.07;;;18.80;43.60;;;;;;5009568;28;20799;-62
2023/04/04 03:23:26;;;;;;;1.27;1.17;;;18.80;43.60;;;;;;5011021;28;21921;-60
2023/04/04 03:25:53;;;;;;;1.10;1.00;;;18.80;43.60;;;;;;5009972;28;20250;-60
2023/04/04 03:28:19;;;;;;;1.17;1.07;;;18.90;43.70;;;;;;5015618;28;20604;-64
2023/04/04 03:30:44;;;;;;;1.27;0.97;;;18.80;43.60;;;;;;5010989;28;20450;-62
2023/04/04 03:33:10;;;;;;;1.10;1.00;;;18.90;43.70;;;;;;5015185;28;20230;-62
2023/04/04 03:35:39;;;;;;;1.20;1.10;;;18.80;43.60;;;;;;5014760;28;20208;-62
2023/04/04 03:38:05;;;;;;;1.13;1.00;;;18.80;43.60;;;;;;5013613;28;20341;-60
2023/04/04 03:40:31;;;;;;;1.13;1.03;;;18.90;43.70;;;;;;5013577;28;20429;-61
2023/04/04 03:42:57;;;;;;;1.00;0.90;;;18.90;43.70;;;;;;5011483;28;21006;-66
2023/04/04 03:45:23;;;;;;;1.23;1.13;;;18.80;43.60;;;;;;5011876;28;20280;-61
2023/04/04 03:47:49;;;;;;;1.00;0.90;;;18.90;43.70;;;;;;5014540;28;20794;-64
2023/04/04 03:50:14;;;;;;;1.17;1.07;;;18.80;43.60;;;;;;5017786;28;20780;-62
2023/04/04 03:52:40;;;;;;;1.20;1.10;;;18.90;43.70;;;;;;5016759;28;20229;-62
2023/04/04 03:55:09;;;;;;;1.37;1.27;;;18.90;43.70;;;;;;5016404;28;20230;-60
2023/04/04 03:57:35;;;;;;;1.00;1.00;;;18.90;43.70;;;;;;5017759;28;20343;-60
2023/04/04 04:00:03;;;;;;;1.10;1.00;;;18.90;43.70;;;;;;5018624;28;20433;-64
2023/04/04 04:02:29;;;;;;;1.07;1.03;;;18.80;43.60;;;;;;5012355;28;20820;-62
2023/04/04 04:04:55;;;;;;;1.50;1.30;;;18.80;43.60;;;;;;5019008;28;20949;-62
2023/04/04 04:07:20;;;;;;;1.00;1.00;;;18.80;43.60;;;;;;5021175;28;20222;-60
2023/04/04 04:09:46;;;;;;;1.10;1.00;;;18.90;43.70;;;;;;5020273;28;20305;-62
2023/04/04 04:12:11;;;;;;;1.23;1.10;;;18.80;43.70;;;;;;5015610;28;20298;-60
2023/04/04 04:14:37;;;;;;;1.30;1.20;;;18.90;43.70;;;;;;5022099;28;20254;-60
2023/04/04 04:17:02;;;;;;;1.00;0.90;;;18.90;43.70;;;;;;5018411;28;20223;-60
2023/04/04 04:19:28;;;;;;;1.00;0.90;;;18.90;43.70;;;;;;5018780;28;20227;-67
2023/04/04 04:21:54;;;;;;;1.10;1.00;;;18.90;43.70;;;;;;5016966;28;20862;-60
2023/04/04 04:24:19;;;;;;;1.07;0.90;;;19.00;43.80;;;;;;5013192;28;20693;-61
2023/04/04 04:26:45;;;;;;;1.20;1.10;;;19.00;43.50;;;;;;5018368;28;20225;-60
2023/04/04 04:29:11;;;;;;;1.10;1.00;;;19.00;43.40;;;;;;5014092;28;20225;-62
2023/04/04 04:31:37;;;;;;;1.10;1.00;;;19.00;43.40;;;;;;5013804;28;20273;-64
2023/04/04 04:34:07;;;;;;;1.13;1.03;;;19.00;43.40;;;;;;5014228;28;20229;-62
2023/04/04 04:36:33;;;;;;;1.10;1.00;;;19.00;43.30;;;;;;5019274;28;20467;-61
2023/04/04 04:38:59;;;;;;;1.77;1.67;;;19.00;43.30;;;;;;5014949;28;20506;-61
2023/04/04 04:41:25;;;;;;;1.30;1.20;;;19.00;43.20;;;;;;5006363;28;22047;-64
2023/04/04 04:43:51;;;;;;;1.20;1.10;;;19.00;43.30;;;;;;5014102;28;20219;-59
2023/04/04 04:46:17;;;;;;;9.10;1.33;;;19.00;43.30;;;;;;5016564;28;20241;-63
2023/04/04 04:48:42;;;;;;;1.30;1.20;;;19.00;43.20;;;;;;5007124;28;21050;-61
2023/04/04 04:51:08;;;;;;;1.00;0.90;;;19.00;43.20;;;;;;5013134;28;20705;-65
2023/04/04 04:53:33;;;;;;;1.10;1.00;;;19.00;43.20;;;;;;5009074;28;20231;-61
2023/04/04 04:55:59;;;;;;;1.10;1.00;;;19.00;43.20;;;;;;5009719;28;20231;-61
2023/04/04 04:58:24;;;;;;;1.20;1.07;;;19.00;43.20;;;;;;5014022;28;20249;-61
2023/04/04 05:00:55;;;;;;;1.20;1.10;;;19.00;43.20;;;;;;5012914;28;20211;-60
2023/04/04 05:03:20;;;;;;;1.30;1.20;;;19.00;43.30;;;;;;5014884;28;20231;-59
2023/04/04 05:05:46;;;;;;;1.37;1.27;;;19.00;43.30;;;;;;5015005;28;20459;-59
2023/04/04 05:08:12;;;;;;;1.10;1.00;;;19.00;43.30;;;;;;5013723;28;20230;-61
2023/04/04 05:10:37;;;;;;;1.13;1.03;;;19.00;43.30;;;;;;5010259;28;22187;-64
2023/04/04 05:13:03;;;;;;;1.10;1.00;;;19.00;43.30;;;;;;5008087;28;20218;-63
2023/04/04 05:15:28;;;;;;;1.10;1.00;;;19.00;43.30;;;;;;5013550;28;20206;-59
2023/04/04 05:17:54;;;;;;;1.10;1.00;;;19.00;43.30;;;;;;5005690;28;20590;-64
2023/04/04 05:20:20;;;;;;;1.37;1.27;;;19.00;43.30;;;;;;5014668;28;20223;-67
2023/04/04 05:22:46;;;;;;;1.30;1.20;;;19.00;43.20;;;;;;5008625;28;20226;-61
2023/04/04 05:25:12;;;;;;;1.10;1.00;;;19.00;43.30;;;;;;5013186;28;20275;-62
2023/04/04 05:27:39;;;;;;;1.20;1.10;;;19.00;43.30;;;;;;5012851;28;20671;-62
2023/04/04 05:30:06;;;;;;;1.13;1.03;;;19.00;43.30;;;;;;5011044;28;21035;-62
2023/04/04 05:32:32;;;;;;;1.30;1.20;;;19.00;43.30;;;;;;5011020;28;22064;-63
2023/04/04 05:34:58;;;;;;;1.00;0.90;;;19.00;43.20;;;;;;5010474;28;20434;-66
2023/04/04 05:37:23;;;;;;;1.07;1.00;;;19.00;43.20;;;;;;5014824;28;20223;-66
2023/04/04 05:39:49;;;;;;;1.20;1.10;;;19.00;43.20;;;;;;5017691;28;20239;-62
2023/04/04 05:42:15;;;;;;;0.87;0.87;;;19.00;43.20;;;;;;5015348;28;20234;-66
2023/04/04 05:44:41;;;;;;;2.30;1.43;;;19.00;43.20;;;;;;5014263;28;20216;-68
2023/04/04 05:47:07;;;;;;;1.10;1.00;;;19.00;43.30;;;;;;5010584;28;20449;-60
2023/04/04 05:49:32;;;;;;;1.20;1.10;;;19.00;43.20;;;;;;5020039;28;20231;-60
2023/04/04 05:51:58;;;;;;;1.30;1.20;;;19.00;43.20;;;;;;5013042;28;20593;-62
2023/04/04 05:54:23;;;;;;;1.27;1.17;;;19.00;43.20;;;;;;5017940;28;20252;-61
2023/04/04 05:56:49;;;;;;;1.10;1.00;;;19.00;43.20;;;;;;5017834;28;20326;-64
2023/04/04 05:59:15;;;;;;;0.93;0.90;;;19.00;43.20;;;;;;5017016;28;20250;-60
2023/04/04 06:01:40;;;;;;;3.97;1.20;;;19.00;43.20;;;;;;5011683;28;20225;-68
2023/04/04 06:04:06;;;;;;;2.33;1.20;;;19.00;43.20;;;;;;5014406;28;20468;-60
2023/04/04 06:06:33;;;;;;;1.00;0.90;;;19.00;43.20;;;;;;5016114;28;20256;-63
2023/04/04 06:08:58;;;;;;;1.10;1.00;;;19.00;43.20;;;;;;5015073;28;20410;-61
2023/04/04 06:11:25;;;;;;;1.50;1.40;;;19.00;43.20;;;;;;5012802;28;20947;-61
2023/04/04 06:13:51;;;;;;;1.10;1.00;;;19.00;43.20;;;;;;5016989;28;20238;-61
2023/04/04 06:16:17;;;;;;;1.10;1.00;;;19.00;43.20;;;;;;5015173;28;20707;-65
2023/04/04 06:18:42;;;;;;;1.10;1.00;;;19.00;43.10;;;;;;5013782;28;20487;-64
2023/04/04 06:21:08;;;;;;;1.10;1.00;;;19.00;43.20;;;;;;5016697;28;20229;-62
2023/04/04 06:23:36;;;;;;;1.73;1.20;;;19.00;43.10;;;;;;5016101;28;20308;-61
2023/04/04 06:26:02;;;;;;;2.43;1.20;;;19.00;43.10;;;;;;5013036;28;20220;-62
2023/04/04 06:28:27;;;;;;;2.00;0.93;;;19.00;43.10;;;;;;5007990;28;20816;-63
2023/04/04 06:30:55;;;;;;;1.30;1.20;;;19.00;43.10;;;;;;5017788;28;20288;-59
2023/04/04 06:33:21;;;;;;;1.73;1.00;;;19.00;43.00;;;;;;5016938;28;20309;-67
2023/04/04 06:35:46;;;;;;;1.30;1.20;;;19.00;43.10;;;;;;5012940;28;21018;-62
2023/04/04 06:38:12;;;;;;;1.20;1.10;;;19.00;43.10;;;;;;5016124;28;20289;-61
2023/04/04 06:40:38;;;;;;;1.40;1.10;;;19.00;43.10;;;;;;5018083;28;20276;-60
2023/04/04 06:43:03;;;;;;;1.13;1.03;;;19.00;43.00;;;;;;5011518;28;20261;-60
2023/04/04 06:45:32;;;;;;;1.07;1.00;;;19.00;43.00;;;;;;5017844;28;20223;-61
2023/04/04 06:47:58;;;;;;;5.73;1.30;;;19.00;43.00;;;;;;5015189;28;20253;-63
2023/04/04 06:50:23;;;;;;;1.27;1.17;;;19.00;43.00;;;;;;5017873;28;20976;-65
2023/04/04 06:52:49;;;;;;;1.40;1.30;;;19.00;43.00;;;;;;5015474;28;21962;-62
2023/04/04 06:55:16;;;;;;;1.10;1.00;;;19.00;43.00;;;;;;5018864;28;20227;-63
2023/04/04 06:57:42;;;;;;;1.10;1.00;;;19.00;43.00;;;;;;5012625;28;20667;-65
2023/04/04 07:00:09;;;;;;;1.20;1.10;;;19.00;43.00;;;;;;5011440;28;20427;-60
2023/04/04 07:02:35;;;;;;;1.20;1.10;;;19.00;43.10;;;;;;5018603;28;20215;-61
2023/04/04 07:05:02;;;;;;;1.27;1.10;;;19.00;42.90;;;;;;5015372;28;20473;-61
2023/04/04 07:07:28;;;;;;;0.90;0.87;;;19.00;43.00;;;;;;5016793;28;20474;-62
2023/04/04 07:09:55;;;;;;;1.97;1.77;;;19.00;43.00;;;;;;5014452;28;20436;-61
2023/04/04 07:12:20;;;;;;;1.17;1.07;;;19.00;42.90;;;;;;5015224;28;20694;-69
2023/04/04 07:14:46;;;;;;;1.03;0.93;;;19.00;42.90;;;;;;5015515;28;21520;-65
2023/04/04 07:17:12;;;;;;;1.10;1.00;;;19.00;42.90;;;;;;5014998;28;20225;-63
2023/04/04 07:19:37;;;;;;;1.13;1.03;;;19.00;42.90;;;;;;5014632;28;20247;-60
2023/04/04 07:22:03;;;;;;;1.40;1.30;;;19.00;42.90;;;;;;5011357;28;20215;-62
2023/04/04 07:24:28;;;;;;;1.20;1.10;;;19.00;42.90;;;;;;5021889;28;20215;-61
2023/04/04 07:26:54;;;;;;;1.00;1.00;;;19.00;42.90;;;;;;5004868;28;20743;-63
2023/04/04 07:29:20;;;;;;;1.60;1.20;;;19.00;42.90;;;;;;5009494;28;20260;-63
2023/04/04 07:31:46;;;;;;;1.40;1.20;;;19.00;43.70;;;;;;5009728;28;20229;-66
2023/04/04 07:34:12;;;;;;;1.20;1.10;;;19.00;42.90;;;;;;5016060;28;20448;-64
2023/04/04 07:36:37;;;;;;;1.17;1.07;;;19.00;42.90;;;;;;5014849;28;20230;-64
2023/04/04 07:39:03;;;;;;;1.20;1.10;;;19.00;42.90;;;;;;5016690;28;20234;-61
2023/04/04 07:41:29;;;;;;;1.17;1.07;;;19.00;42.90;;;;;;5012459;28;20222;-67
2023/04/04 07:43:55;;;;;;;1.10;1.00;;;19.00;42.90;;;;;;5015284;28;20226;-63
2023/04/04 07:46:21;;;;;;;1.30;1.20;;;19.00;42.90;;;;;;5015122;28;20215;-63
2023/04/04 07:48:46;;;;;;;1.20;1.10;;;19.00;42.90;;;;;;5015694;28;20253;-62
2023/04/04 07:51:12;;;;;;;1.00;0.90;;;19.00;42.90;;;;;;5011172;28;20447;-63
2023/04/04 07:53:38;;;;;;;1.20;1.10;;;19.00;42.80;;;;;;5017516;28;20223;-60
2023/04/04 07:56:06;;;;;;;1.33;1.23;;;19.00;42.90;;;;;;5016506;28;20617;-65
2023/04/04 07:58:35;;;;;;;1.20;1.10;;;19.00;42.80;;;;;;5012617;28;20243;-62
2023/04/04 08:01:02;;;;;;;1.87;0.90;;;19.00;42.80;;;;;;5009807;28;20914;-65
2023/04/04 08:03:28;;;;;;;1.43;1.20;;;19.00;42.80;;;;;;5003887;28;20470;-61
2023/04/04 08:05:54;;;;;;;1.27;1.17;;;19.00;42.80;;;;;;5007500;28;20471;-64
2023/04/04 08:08:20;;;;;;;1.30;1.20;;;19.00;42.90;;;;;;4998790;28;20454;-64
2023/04/04 08:10:46;;;;;;;1.30;1.17;;;19.00;42.80;;;;;;5003380;28;20337;-69
2023/04/04 08:13:12;;;;;;;1.83;1.00;;;19.00;42.80;;;;;;4997533;28;20464;-62
2023/04/04 08:15:38;;;;;;;1.27;1.00;;;19.00;42.80;;;;;;4999786;28;20265;-64
2023/04/04 08:18:04;;;;;;;1.20;1.10;;;19.00;42.80;;;;;;4999469;28;20944;-66
2023/04/04 08:20:30;;;;;;;1.10;1.00;;;19.00;42.80;;;;;;5002900;28;21044;-63
2023/04/04 08:22:56;;;;;;;1.87;1.00;;;19.00;42.80;;;;;;5013633;28;20586;-66
2023/04/04 08:25:22;;;;;;;1.10;1.00;;;19.00;42.80;;;;;;5003034;28;20447;-65
2023/04/04 08:27:47;;;;;;;1.20;1.10;;;19.00;42.90;;;;;;4992440;28;20435;-66
2023/04/04 08:30:14;;;;;;;2.20;1.20;;;19.00;42.90;;;;;;5000450;28;20234;-63
2023/04/04 08:32:41;;;;;;;0.90;0.90;;;19.00;42.80;;;;;;4998588;28;20913;-61
2023/04/04 08:35:07;;;;;;;1.40;1.07;;;19.00;42.80;;;;;;5007989;28;20427;-64
2023/04/04 08:37:34;;;;;;;1.33;1.23;;;19.00;43.00;;;;;;5007836;28;20861;-63
2023/04/04 08:40:00;;;;;;;1.13;1.03;;;19.00;42.90;;;;;;5005076;28;20493;-64
2023/04/04 08:42:29;;;;;;;1.27;0.90;;;19.00;42.80;;;;;;5006771;28;20485;-66
2023/04/04 08:44:58;;;;;;;1.30;1.20;;;19.00;42.80;;;;;;5004867;28;20579;-69
2023/04/04 08:47:25;;;;;;;1.23;1.13;;;19.00;42.90;;;;;;5004945;28;20441;-68
2023/04/04 08:49:52;;;;;;;1.37;1.20;;;19.00;42.80;;;;;;5005202;28;20487;-60
2023/04/04 08:52:21;;;;;;;0.90;0.90;;;19.00;42.80;;;;;;5001013;28;20464;-61
2023/04/04 08:54:48;;;;;;;1.30;1.20;;;19.00;42.70;;;;;;5007428;28;20984;-66
2023/04/04 08:57:14;;;;;;;1.10;1.00;;;19.00;42.80;;;;;;5006865;28;20463;-67
2023/04/04 08:59:40;;;;;;;1.20;1.10;;;19.00;42.80;;;;;;5006399;28;20975;-63
2023/04/04 09:02:08;;;;;;;1.00;0.90;;;19.00;42.70;;;;;;5004874;28;20222;-64
2023/04/04 09:04:34;;;;;;;1.23;1.13;;;19.00;42.80;;;;;;5004241;28;20329;-64
2023/04/04 09:07:02;;;;;;;2.00;1.70;;;19.00;42.70;;;;;;5005699;28;20468;-62
2023/04/04 09:09:30;;;;;;;1.03;0.93;;;19.00;42.80;;;;;;5005738;28;20592;-63
2023/04/04 09:11:56;;;;;;;1.90;1.00;;;19.00;42.70;;;;;;5010953;28;20471;-62
2023/04/04 09:14:23;;;;;;;1.30;1.20;;;19.00;42.80;;;;;;5008975;28;20439;-65
2023/04/04 09:16:49;;;;;;;0.90;0.90;;;19.00;42.80;;;;;;5004347;28;20233;-63
2023/04/04 09:19:14;;;;;;;1.30;0.90;;;19.00;42.80;;;;;;5000027;28;21038;-68
2023/04/04 09:21:45;;;;;;;1.40;1.00;;;19.00;42.80;;;;;;4994205;28;20223;-63
2023/04/04 09:24:11;;;;;;;1.40;1.00;;;19.00;42.80;;;;;;4999824;28;20215;-62
2023/04/04 09:26:52;;;;;;;1.17;1.07;;;19.00;43.50;;;;;;4999398;28;21514;-63
2023/04/04 09:29:19;;;;;;;1.20;1.10;;;19.00;42.70;;;;;;5002644;28;20238;-69
2023/04/04 09:31:45;;;;;;;1.40;1.30;;;19.00;42.70;;;;;;5006891;28;20797;-64
2023/04/04 09:34:16;;;;;;;1.10;1.00;;;19.10;42.80;;;;;;4997282;28;21032;-67
2023/04/04 09:36:41;;;;;;;1.10;1.00;;;19.00;42.70;;;;;;5001591;28;20810;-61
2023/04/04 09:39:07;;;;;;;1.10;1.00;;;19.00;42.70;;;;;;4999010;28;20472;-64
2023/04/04 09:41:35;;;;;;;1.07;0.90;;;19.00;42.80;;;;;;4999937;28;20527;-70
2023/04/04 09:44:01;;;;;;;1.87;1.00;;;19.00;42.70;;;;;;4998754;28;20456;-67
2023/04/04 09:46:27;;;;;;;1.00;0.90;;;19.10;42.80;;;;;;4997752;28;20431;-68
2023/04/04 09:48:54;;;;;;;1.80;1.10;;;19.10;43.50;;;;;;4992112;28;20529;-65
2023/04/04 09:51:20;;;;;;;1.20;1.10;;;19.10;42.70;;;;;;4997596;28;20674;-63
2023/04/04 09:53:50;;;;;;;1.10;1.00;;;19.10;42.70;;;;;;5005153;28;20934;-70
2023/04/04 09:56:16;;;;;;;1.30;1.20;;;19.10;42.70;;;;;;4993068;28;20226;-70
2023/04/04 09:58:46;;;;;;;1.00;0.90;;;19.10;42.80;;;;;;4996009;28;20537;-69
2023/04/04 10:01:12;;;;;;;2.13;1.07;;;19.10;42.70;;;;;;4999464;28;20245;-68
2023/04/04 10:03:38;;;;;;;1.07;0.97;;;19.10;42.70;;;;;;5007278;28;20434;-60
2023/04/04 10:06:11;;;;;;;2.70;1.07;;;19.10;42.70;;;;;;5004869;28;20273;-67
2023/04/04 10:08:40;;;;;;;1.10;1.00;;;19.10;42.70;;;;;;5003439;28;20299;-65
2023/04/04 10:11:05;;;;;;;1.30;1.20;;;19.10;42.70;;;;;;4998794;28;20464;-69
2023/04/04 10:13:34;;;;;;;2.87;1.00;;;19.10;42.70;;;;;;4996645;28;20458;-60
2023/04/04 10:16:02;;;;;;;0.80;0.80;;;19.10;42.70;;;;;;4987805;28;20218;-67
2023/04/04 10:18:33;;;;;;;1.10;1.00;;;19.10;42.70;;;;;;4991486;28;20615;-70
2023/04/04 10:21:03;;;;;;;1.93;0.80;;;19.10;42.70;;;;;;4997596;28;20471;-65
2023/04/04 10:23:29;;;;;;;1.47;0.90;;;19.10;42.70;;;;;;4996149;28;21093;-68
2023/04/04 10:25:56;;;;;;;1.03;0.90;;;19.10;42.80;;;;;;5011273;28;20426;-64
2023/04/04 10:28:23;;;;;;;1.30;1.20;;;19.10;42.70;;;;;;4994403;28;20765;-61
2023/04/04 10:31:31;;;;;;;1.03;0.97;;;19.10;42.70;;;;;;5005990;28;20427;-66
2023/04/04 10:34:03;;;;;;;1.10;1.00;;;19.10;42.70;;;;;;5003537;28;20475;-64
2023/04/04 10:36:35;;;;;;;1.37;1.00;;;19.10;42.70;;;;;;5002137;28;21357;-67
2023/04/04 10:39:13;;;;;;;0.83;0.80;;;19.10;42.70;;;;;;5003600;28;20510;-68
2023/04/04 10:41:40;;;;;;;0.73;0.73;;;19.10;42.70;;;;;;5004294;28;20426;-64
2023/04/04 10:44:19;;;;;;;1.93;1.00;;;19.10;42.70;;;;;;5000875;28;21550;-64
2023/04/04 10:46:50;;;;;;;0.97;0.87;;;19.10;42.70;;;;;;5007885;28;20434;-67
2023/04/04 10:49:16;;;;;;;1.20;1.10;;;19.10;42.70;;;;;;4998602;28;20438;-69
2023/04/04 10:51:42;;;;;;;0.93;0.93;;;19.10;42.60;;;;;;4996206;28;20455;-64
2023/04/04 10:54:09;;;;;;;4.93;1.07;;;19.10;42.60;;;;;;5003855;28;20483;-67
2023/04/04 10:56:35;;;;;;;2.60;0.90;;;19.10;42.60;;;;;;4998266;28;20430;-67
2023/04/04 10:59:15;;;;;;;1.20;1.10;;;19.10;42.60;;;;;;5001846;28;20533;-66
2023/04/04 11:01:58;;;;;;;2.57;1.00;;;19.10;42.50;;;;;;4998526;28;20478;-64
2023/04/04 11:04:36;;;;;;;1.10;1.00;;;19.10;42.50;;;;;;5002021;28;20471;-67
2023/04/04 11:07:13;;;;;;;0.87;0.87;;;19.10;42.50;;;;;;4998728;28;21965;-63
2023/04/04 11:09:52;;;;;;;1.17;1.07;;;19.20;42.60;;;;;;4999013;28;20464;-66
2023/04/04 11:12:25;;;;;;;0.97;0.87;;;19.20;42.60;;;;;;4999605;28;20450;-66
2023/04/04 11:14:56;;;;;;;1.40;0.90;;;19.10;42.50;;;;;;5002865;28;20467;-65
2023/04/04 11:17:57;;;;;;;1.87;1.00;;;19.10;42.50;;;;;;5007300;28;20443;-66
2023/04/04 11:20:31;;;;;;;1.00;0.90;;;19.20;42.60;;;;;;5002298;28;20565;-63
2023/04/04 11:23:16;;;;;;;1.13;1.00;;;19.10;42.50;;;;;;5000620;28;20458;-62
2023/04/04 11:25:50;;;;;;;0.87;0.77;;;19.10;42.50;;;;;;4995343;28;20487;-64
2023/04/04 11:28:34;;;;;;;0.90;0.90;;;19.10;42.60;;;;;;4997712;28;21519;-67
2023/04/04 11:31:19;;;;;;;1.67;0.70;;;19.20;42.60;;;;;;4970041;28;20460;-68
2023/04/04 11:34:13;;;;;;;0.97;0.87;;;19.10;42.50;;;;;;4987935;28;20466;-68
2023/04/04 11:36:40;;;;;;;1.10;1.00;;;19.10;42.50;;;;;;5000073;28;20456;-65
2023/04/04 11:39:26;;;;;;;1.43;0.87;;;19.10;42.50;;;;;;5001210;28;21337;-68
2023/04/04 11:41:58;;;;;;;3.30;1.37;;;19.10;42.50;;;;;;4998693;28;20488;-62
2023/04/04 11:44:29;;;;;;;1.10;1.00;;;19.10;42.40;;;;;;5002338;28;20496;-62
2023/04/04 11:47:03;;;;;;;1.37;1.00;;;19.10;42.40;;;;;;4992520;28;20585;-67
2023/04/04 11:49:30;;;;;;;1.33;1.20;;;19.10;42.30;;;;;;5003064;28;20448;-67
2023/04/04 11:51:56;;;;;;;0.90;0.80;;;19.10;43.00;;;;;;4997543;28;21696;-69
2023/04/04 11:54:22;;;;;;;1.20;1.10;;;19.10;42.20;;;;;;4998532;28;20472;-67
2023/04/04 11:56:48;;;;;;;2.30;1.10;;;19.10;42.10;;;;;;4990518;28;20238;-64
2023/04/04 11:59:18;;;;;;;2.27;0.90;;;19.00;42.00;;;;;;4996484;28;20788;-61
2023/04/04 12:01:44;;;;;;;1.13;1.00;;;19.00;41.90;;;;;;5000199;28;20756;-65
2023/04/04 12:04:10;;;;;;;1.00;0.90;;;19.00;41.80;;;;;;5000978;28;20442;-61
2023/04/04 12:06:39;;;;;;;1.20;1.10;;;19.10;41.70;;;;;;5005288;28;21065;-59
2023/04/04 12:09:05;;;;;;;1.03;0.90;;;19.10;41.60;;;;;;5006216;28;20235;-65
2023/04/04 12:11:35;;;;;;;1.47;1.30;;;19.10;41.60;;;;;;5008298;28;20435;-62
2023/04/04 12:14:01;;;;;;;1.13;0.93;;;19.10;41.40;;;;;;5004097;28;20226;-63
2023/04/04 12:16:27;;;;;;;3.37;1.00;;;19.10;41.30;;;;;;5009911;28;20459;-61
2023/04/04 12:18:54;;;;;;;2.23;1.00;;;19.20;41.30;;;;;;5004357;28;20250;-65
2023/04/04 12:21:20;;;;;;;1.10;1.00;;;19.20;41.20;;;;;;5001639;28;20666;-66
2023/04/04 12:23:47;;;;;;;4.23;1.00;;;19.20;41.10;;;;;;5002370;28;21260;-68
2023/04/04 12:26:14;;;;;;;1.60;1.10;;;19.20;41.00;;;;;;5001978;28;20341;-66
2023/04/04 12:28:44;;;;;;;1.23;0.87;;;19.20;40.90;;;;;;5006954;28;20469;-64
2023/04/04 12:31:11;;;;;;;1.00;0.90;;;19.30;40.90;;;;;;5003240;28;20459;-67
2023/04/04 12:33:40;;;;;;;1.20;1.10;;;19.30;40.90;;;;;;5002034;28;21623;-63
2023/04/04 12:36:05;;;;;;;1.17;1.07;;;19.30;40.80;;;;;;5001901;28;21448;-62
2023/04/04 12:38:33;;;;;;;1.73;0.90;;;19.30;40.80;;;;;;5001202;28;20458;-61
2023/04/04 12:40:59;;;;;;;1.40;1.00;;;19.30;40.80;;;;;;4998112;28;20229;-64
2023/04/04 12:43:29;;;;;;;1.53;1.00;;;19.30;40.70;;;;;;5002433;28;20445;-64
2023/04/04 12:45:56;;;;;;;1.20;1.00;;;19.30;40.70;;;;;;5002520;28;20431;-64
2023/04/04 12:48:28;;;;;;;1.27;1.17;;;19.30;40.60;;;;;;5001651;28;20447;-61